sensor_id;sensor_type;location;lat;lon;timestamp;P1;durP1;ratioP1;P2;durP2;ratioP2
12986;SDS011;58897;51.960;5.582;2023-11-21T00:01:02;21.23;;;8.20;;
12986;SDS011;58897;51.960;5.582;2023-11-21T00:03:30;23.33;;;8.77;;
12986;SDS011;58897;51.960;5.582;2023-11-21T00:05:58;15.10;;;7.33;;
12986;SDS011;58897;51.960;5.582;2023-11-21T00:08:24;17.87;;;7.93;;
12986;SDS011;58897;51.960;5.582;2023-11-21T00:10:51;19.70;;;8.37;;
12986;SDS011;58897;51.960;5.582;2023-11-21T00:13:18;17.10;;;8.00;;
12986;SDS011;58897;51.960;5.582;2023-11-21T00:15:44;23.57;;;8.40;;
12986;SDS011;58897;51.960;5.582;2023-11-21T00:18:11;22.90;;;9.27;;
12986;SDS011;58897;51.960;5.582;2023-11-21T00:20:38;20.50;;;7.80;;
12986;SDS011;58897;51.960;5.582;2023-11-21T00:23:04;16.43;;;8.30;;
12986;SDS011;58897;51.960;5.582;2023-11-21T00:25:31;16.37;;;7.93;;
12986;SDS011;58897;51.960;5.582;2023-11-21T00:27:58;21.80;;;8.37;;
12986;SDS011;58897;51.960;5.582;2023-11-21T00:30:25;18.43;;;8.43;;
12986;SDS011;58897;51.960;5.582;2023-11-21T00:32:52;16.80;;;8.60;;
12986;SDS011;58897;51.960;5.582;2023-11-21T00:35:19;23.13;;;8.77;;
12986;SDS011;58897;51.960;5.582;2023-11-21T00:37:45;19.50;;;8.37;;
12986;SDS011;58897;51.960;5.582;2023-11-21T00:40:12;22.07;;;8.60;;
12986;SDS011;58897;51.960;5.582;2023-11-21T00:42:41;18.57;;;8.13;;
12986;SDS011;58897;51.960;5.582;2023-11-21T00:45:08;17.03;;;8.77;;
12986;SDS011;58897;51.960;5.582;2023-11-21T00:47:35;16.77;;;8.23;;
12986;SDS011;58897;51.960;5.582;2023-11-21T00:50:02;16.30;;;7.67;;
12986;SDS011;58897;51.960;5.582;2023-11-21T00:52:29;14.60;;;7.60;;
12986;SDS011;58897;51.960;5.582;2023-11-21T00:54:55;25.57;;;7.77;;
12986;SDS011;58897;51.960;5.582;2023-11-21T00:57:22;26.17;;;8.93;;
12986;SDS011;58897;51.960;5.582;2023-11-21T00:59:48;23.80;;;8.33;;
12986;SDS011;58897;51.960;5.582;2023-11-21T01:02:15;18.90;;;8.93;;
12986;SDS011;58897;51.960;5.582;2023-11-21T01:04:41;21.53;;;8.77;;
12986;SDS011;58897;51.960;5.582;2023-11-21T01:07:08;16.43;;;8.30;;
12986;SDS011;58897;51.960;5.582;2023-11-21T01:09:35;14.10;;;8.03;;
12986;SDS011;58897;51.960;5.582;2023-11-21T01:12:02;16.83;;;8.03;;
12986;SDS011;58897;51.960;5.582;2023-11-21T01:14:29;15.83;;;8.00;;
12986;SDS011;58897;51.960;5.582;2023-11-21T01:16:55;15.03;;;7.23;;
12986;SDS011;58897;51.960;5.582;2023-11-21T01:19:22;12.90;;;6.73;;
12986;SDS011;58897;51.960;5.582;2023-11-21T01:21:49;18.17;;;8.07;;
12986;SDS011;58897;51.960;5.582;2023-11-21T01:24:15;19.70;;;7.37;;
12986;SDS011;58897;51.960;5.582;2023-11-21T01:26:42;18.90;;;8.40;;
12986;SDS011;58897;51.960;5.582;2023-11-21T01:29:09;15.20;;;7.40;;
12986;SDS011;58897;51.960;5.582;2023-11-21T01:31:36;14.37;;;8.23;;
12986;SDS011;58897;51.960;5.582;2023-11-21T01:34:03;18.57;;;7.90;;
12986;SDS011;58897;51.960;5.582;2023-11-21T01:36:30;15.70;;;7.77;;
12986;SDS011;58897;51.960;5.582;2023-11-21T01:38:59;13.20;;;7.27;;
12986;SDS011;58897;51.960;5.582;2023-11-21T01:41:28;13.73;;;7.57;;
12986;SDS011;58897;51.960;5.582;2023-11-21T01:43:55;19.83;;;8.87;;
12986;SDS011;58897;51.960;5.582;2023-11-21T01:46:23;20.20;;;8.13;;
12986;SDS011;58897;51.960;5.582;2023-11-21T01:48:50;23.03;;;7.30;;
12986;SDS011;58897;51.960;5.582;2023-11-21T01:51:17;19.30;;;6.50;;
12986;SDS011;58897;51.960;5.582;2023-11-21T01:53:45;12.37;;;6.90;;
12986;SDS011;58897;51.960;5.582;2023-11-21T01:56:13;20.77;;;6.80;;
12986;SDS011;58897;51.960;5.582;2023-11-21T01:58:41;15.70;;;6.53;;
12986;SDS011;58897;51.960;5.582;2023-11-21T02:01:09;14.20;;;5.90;;
12986;SDS011;58897;51.960;5.582;2023-11-21T02:03:36;28.27;;;5.83;;
12986;SDS011;58897;51.960;5.582;2023-11-21T02:06:03;14.03;;;5.97;;
12986;SDS011;58897;51.960;5.582;2023-11-21T02:08:30;13.80;;;6.23;;
12986;SDS011;58897;51.960;5.582;2023-11-21T02:10:57;23.80;;;6.53;;
12986;SDS011;58897;51.960;5.582;2023-11-21T02:13:24;9.03;;;5.77;;
12986;SDS011;58897;51.960;5.582;2023-11-21T02:15:50;20.57;;;5.93;;
12986;SDS011;58897;51.960;5.582;2023-11-21T02:18:18;9.07;;;5.23;;
12986;SDS011;58897;51.960;5.582;2023-11-21T02:20:45;18.83;;;6.40;;
12986;SDS011;58897;51.960;5.582;2023-11-21T02:23:13;22.10;;;6.53;;
12986;SDS011;58897;51.960;5.582;2023-11-21T02:25:41;19.63;;;7.37;;
12986;SDS011;58897;51.960;5.582;2023-11-21T02:28:09;12.77;;;5.57;;
12986;SDS011;58897;51.960;5.582;2023-11-21T02:30:39;9.03;;;5.07;;
12986;SDS011;58897;51.960;5.582;2023-11-21T02:33:06;9.47;;;5.77;;
12986;SDS011;58897;51.960;5.582;2023-11-21T02:35:33;9.70;;;5.50;;
12986;SDS011;58897;51.960;5.582;2023-11-21T02:38:01;11.00;;;5.73;;
12986;SDS011;58897;51.960;5.582;2023-11-21T02:40:28;6.77;;;4.70;;
12986;SDS011;58897;51.960;5.582;2023-11-21T02:42:56;13.40;;;5.87;;
12986;SDS011;58897;51.960;5.582;2023-11-21T02:45:25;15.07;;;6.20;;
12986;SDS011;58897;51.960;5.582;2023-11-21T02:47:52;16.43;;;6.27;;
12986;SDS011;58897;51.960;5.582;2023-11-21T02:50:24;15.23;;;6.23;;
12986;SDS011;58897;51.960;5.582;2023-11-21T02:52:51;9.73;;;6.17;;
12986;SDS011;58897;51.960;5.582;2023-11-21T02:55:18;13.80;;;6.20;;
12986;SDS011;58897;51.960;5.582;2023-11-21T02:57:45;14.73;;;6.07;;
12986;SDS011;58897;51.960;5.582;2023-11-21T03:00:11;12.37;;;5.73;;
12986;SDS011;58897;51.960;5.582;2023-11-21T03:02:41;16.00;;;6.30;;
12986;SDS011;58897;51.960;5.582;2023-11-21T03:05:08;13.67;;;6.63;;
12986;SDS011;58897;51.960;5.582;2023-11-21T03:07:36;18.03;;;6.83;;
12986;SDS011;58897;51.960;5.582;2023-11-21T03:10:04;13.00;;;6.10;;
12986;SDS011;58897;51.960;5.582;2023-11-21T03:12:30;16.00;;;6.60;;
12986;SDS011;58897;51.960;5.582;2023-11-21T03:14:57;16.97;;;7.23;;
12986;SDS011;58897;51.960;5.582;2023-11-21T03:17:24;12.83;;;6.77;;
12986;SDS011;58897;51.960;5.582;2023-11-21T03:19:50;15.33;;;7.50;;
12986;SDS011;58897;51.960;5.582;2023-11-21T03:22:18;11.77;;;6.93;;
12986;SDS011;58897;51.960;5.582;2023-11-21T03:24:45;19.50;;;8.00;;
12986;SDS011;58897;51.960;5.582;2023-11-21T03:27:12;18.90;;;7.33;;
12986;SDS011;58897;51.960;5.582;2023-11-21T03:29:38;15.23;;;7.03;;
12986;SDS011;58897;51.960;5.582;2023-11-21T03:32:05;14.10;;;7.13;;
12986;SDS011;58897;51.960;5.582;2023-11-21T03:34:33;14.87;;;7.93;;
12986;SDS011;58897;51.960;5.582;2023-11-21T03:37:00;15.43;;;7.33;;
12986;SDS011;58897;51.960;5.582;2023-11-21T03:39:26;12.20;;;6.53;;
12986;SDS011;58897;51.960;5.582;2023-11-21T03:41:53;14.67;;;7.30;;
12986;SDS011;58897;51.960;5.582;2023-11-21T03:44:20;15.67;;;7.47;;
12986;SDS011;58897;51.960;5.582;2023-11-21T03:46:46;18.77;;;7.77;;
12986;SDS011;58897;51.960;5.582;2023-11-21T03:49:13;18.23;;;7.50;;
12986;SDS011;58897;51.960;5.582;2023-11-21T03:51:40;12.83;;;6.90;;
12986;SDS011;58897;51.960;5.582;2023-11-21T03:54:06;16.20;;;7.33;;
12986;SDS011;58897;51.960;5.582;2023-11-21T03:56:33;12.50;;;7.40;;
12986;SDS011;58897;51.960;5.582;2023-11-21T03:58:59;14.17;;;6.63;;
12986;SDS011;58897;51.960;5.582;2023-11-21T04:01:26;13.73;;;7.33;;
12986;SDS011;58897;51.960;5.582;2023-11-21T04:03:53;18.97;;;8.37;;
12986;SDS011;58897;51.960;5.582;2023-11-21T04:06:19;14.50;;;7.23;;
12986;SDS011;58897;51.960;5.582;2023-11-21T04:08:46;15.93;;;8.00;;
12986;SDS011;58897;51.960;5.582;2023-11-21T04:11:13;19.03;;;7.93;;
12986;SDS011;58897;51.960;5.582;2023-11-21T04:13:40;14.87;;;7.47;;
12986;SDS011;58897;51.960;5.582;2023-11-21T04:16:08;15.13;;;7.23;;
12986;SDS011;58897;51.960;5.582;2023-11-21T04:18:36;11.10;;;6.33;;
12986;SDS011;58897;51.960;5.582;2023-11-21T04:21:04;15.97;;;6.87;;
12986;SDS011;58897;51.960;5.582;2023-11-21T04:23:32;13.20;;;6.93;;
12986;SDS011;58897;51.960;5.582;2023-11-21T04:25:59;13.87;;;6.60;;
12986;SDS011;58897;51.960;5.582;2023-11-21T04:28:26;20.60;;;7.70;;
12986;SDS011;58897;51.960;5.582;2023-11-21T04:30:52;16.60;;;7.40;;
12986;SDS011;58897;51.960;5.582;2023-11-21T04:33:19;15.10;;;6.47;;
12986;SDS011;58897;51.960;5.582;2023-11-21T04:35:46;17.43;;;6.93;;
12986;SDS011;58897;51.960;5.582;2023-11-21T04:38:12;16.43;;;7.07;;
12986;SDS011;58897;51.960;5.582;2023-11-21T04:40:39;17.40;;;7.23;;
12986;SDS011;58897;51.960;5.582;2023-11-21T04:43:05;23.73;;;8.37;;
12986;SDS011;58897;51.960;5.582;2023-11-21T04:45:32;10.53;;;5.50;;
12986;SDS011;58897;51.960;5.582;2023-11-21T04:47:59;18.97;;;7.63;;
12986;SDS011;58897;51.960;5.582;2023-11-21T04:50:25;18.77;;;7.17;;
12986;SDS011;58897;51.960;5.582;2023-11-21T04:52:53;14.87;;;6.63;;
12986;SDS011;58897;51.960;5.582;2023-11-21T04:55:20;13.40;;;6.33;;
12986;SDS011;58897;51.960;5.582;2023-11-21T04:57:47;12.30;;;6.23;;
12986;SDS011;58897;51.960;5.582;2023-11-21T05:00:13;14.70;;;7.10;;
12986;SDS011;58897;51.960;5.582;2023-11-21T05:02:42;13.43;;;6.40;;
12986;SDS011;58897;51.960;5.582;2023-11-21T05:05:10;15.90;;;6.83;;
12986;SDS011;58897;51.960;5.582;2023-11-21T05:07:37;15.03;;;7.00;;
12986;SDS011;58897;51.960;5.582;2023-11-21T05:10:05;16.03;;;7.17;;
12986;SDS011;58897;51.960;5.582;2023-11-21T05:12:35;20.53;;;7.40;;
12986;SDS011;58897;51.960;5.582;2023-11-21T05:15:05;16.50;;;6.77;;
12986;SDS011;58897;51.960;5.582;2023-11-21T05:17:39;12.80;;;6.57;;
12986;SDS011;58897;51.960;5.582;2023-11-21T05:20:10;17.10;;;7.07;;
12986;SDS011;58897;51.960;5.582;2023-11-21T05:22:38;16.30;;;6.73;;
12986;SDS011;58897;51.960;5.582;2023-11-21T05:25:06;21.67;;;7.70;;
12986;SDS011;58897;51.960;5.582;2023-11-21T05:27:34;15.83;;;7.33;;
12986;SDS011;58897;51.960;5.582;2023-11-21T05:30:02;15.43;;;6.73;;
12986;SDS011;58897;51.960;5.582;2023-11-21T05:32:32;13.37;;;6.60;;
12986;SDS011;58897;51.960;5.582;2023-11-21T05:34:59;12.73;;;6.20;;
12986;SDS011;58897;51.960;5.582;2023-11-21T05:37:26;16.57;;;6.80;;
12986;SDS011;58897;51.960;5.582;2023-11-21T05:39:53;11.50;;;6.30;;
12986;SDS011;58897;51.960;5.582;2023-11-21T05:42:22;14.63;;;6.70;;
12986;SDS011;58897;51.960;5.582;2023-11-21T05:44:49;19.47;;;7.60;;
12986;SDS011;58897;51.960;5.582;2023-11-21T05:47:16;20.67;;;8.47;;
12986;SDS011;58897;51.960;5.582;2023-11-21T05:49:43;17.57;;;7.27;;
12986;SDS011;58897;51.960;5.582;2023-11-21T05:52:11;15.03;;;6.10;;
12986;SDS011;58897;51.960;5.582;2023-11-21T05:54:38;19.20;;;7.07;;
12986;SDS011;58897;51.960;5.582;2023-11-21T05:57:04;15.03;;;6.67;;
12986;SDS011;58897;51.960;5.582;2023-11-21T05:59:31;15.40;;;6.87;;
12986;SDS011;58897;51.960;5.582;2023-11-21T06:01:57;12.60;;;6.43;;
12986;SDS011;58897;51.960;5.582;2023-11-21T06:04:25;14.77;;;6.43;;
12986;SDS011;58897;51.960;5.582;2023-11-21T06:06:52;17.57;;;7.23;;
12986;SDS011;58897;51.960;5.582;2023-11-21T06:09:21;18.10;;;7.20;;
12986;SDS011;58897;51.960;5.582;2023-11-21T06:11:48;14.43;;;6.63;;
12986;SDS011;58897;51.960;5.582;2023-11-21T06:14:15;11.17;;;6.70;;
12986;SDS011;58897;51.960;5.582;2023-11-21T06:16:44;11.60;;;5.80;;
12986;SDS011;58897;51.960;5.582;2023-11-21T06:19:11;15.07;;;6.70;;
12986;SDS011;58897;51.960;5.582;2023-11-21T06:21:38;17.83;;;6.77;;
12986;SDS011;58897;51.960;5.582;2023-11-21T06:24:05;12.97;;;6.50;;
12986;SDS011;58897;51.960;5.582;2023-11-21T06:26:32;11.00;;;6.43;;
12986;SDS011;58897;51.960;5.582;2023-11-21T06:28:59;18.47;;;7.20;;
12986;SDS011;58897;51.960;5.582;2023-11-21T06:31:25;20.93;;;7.77;;
12986;SDS011;58897;51.960;5.582;2023-11-21T06:33:52;17.67;;;7.00;;
12986;SDS011;58897;51.960;5.582;2023-11-21T06:36:19;19.33;;;7.50;;
12986;SDS011;58897;51.960;5.582;2023-11-21T06:38:46;14.47;;;6.87;;
12986;SDS011;58897;51.960;5.582;2023-11-21T06:41:12;15.60;;;7.00;;
12986;SDS011;58897;51.960;5.582;2023-11-21T06:43:41;14.13;;;6.43;;
12986;SDS011;58897;51.960;5.582;2023-11-21T06:46:12;17.10;;;7.87;;
12986;SDS011;58897;51.960;5.582;2023-11-21T06:48:42;18.57;;;7.90;;
12986;SDS011;58897;51.960;5.582;2023-11-21T06:51:09;13.20;;;6.83;;
12986;SDS011;58897;51.960;5.582;2023-11-21T06:53:36;13.13;;;6.53;;
12986;SDS011;58897;51.960;5.582;2023-11-21T06:56:04;18.77;;;6.90;;
12986;SDS011;58897;51.960;5.582;2023-11-21T06:58:41;20.10;;;7.80;;
12986;SDS011;58897;51.960;5.582;2023-11-21T07:01:08;18.23;;;7.70;;
12986;SDS011;58897;51.960;5.582;2023-11-21T07:03:35;16.97;;;6.97;;
12986;SDS011;58897;51.960;5.582;2023-11-21T07:06:04;21.90;;;8.53;;
12986;SDS011;58897;51.960;5.582;2023-11-21T07:08:31;18.80;;;7.50;;
12986;SDS011;58897;51.960;5.582;2023-11-21T07:10:57;22.77;;;8.13;;
12986;SDS011;58897;51.960;5.582;2023-11-21T07:13:24;19.20;;;8.03;;
12986;SDS011;58897;51.960;5.582;2023-11-21T07:15:51;16.80;;;7.27;;
12986;SDS011;58897;51.960;5.582;2023-11-21T07:18:18;22.70;;;8.43;;
12986;SDS011;58897;51.960;5.582;2023-11-21T07:20:45;21.73;;;7.80;;
12986;SDS011;58897;51.960;5.582;2023-11-21T07:23:12;18.87;;;7.47;;
12986;SDS011;58897;51.960;5.582;2023-11-21T07:25:38;18.83;;;7.93;;
12986;SDS011;58897;51.960;5.582;2023-11-21T07:28:06;20.73;;;7.70;;
12986;SDS011;58897;51.960;5.582;2023-11-21T07:30:33;18.47;;;7.57;;
12986;SDS011;58897;51.960;5.582;2023-11-21T07:32:59;15.90;;;7.00;;
12986;SDS011;58897;51.960;5.582;2023-11-21T07:35:26;19.90;;;7.93;;
12986;SDS011;58897;51.960;5.582;2023-11-21T07:37:53;19.33;;;7.90;;
12986;SDS011;58897;51.960;5.582;2023-11-21T07:40:19;15.40;;;7.87;;
12986;SDS011;58897;51.960;5.582;2023-11-21T07:42:46;16.17;;;7.57;;
12986;SDS011;58897;51.960;5.582;2023-11-21T07:45:13;19.73;;;7.93;;
12986;SDS011;58897;51.960;5.582;2023-11-21T07:47:39;18.20;;;7.80;;
12986;SDS011;58897;51.960;5.582;2023-11-21T07:50:09;22.13;;;8.87;;
12986;SDS011;58897;51.960;5.582;2023-11-21T07:52:38;26.60;;;9.57;;
12986;SDS011;58897;51.960;5.582;2023-11-21T07:55:05;20.03;;;8.80;;
12986;SDS011;58897;51.960;5.582;2023-11-21T07:57:31;17.77;;;8.33;;
12986;SDS011;58897;51.960;5.582;2023-11-21T07:59:59;19.03;;;8.40;;
12986;SDS011;58897;51.960;5.582;2023-11-21T08:02:26;22.80;;;8.53;;
12986;SDS011;58897;51.960;5.582;2023-11-21T08:04:53;18.17;;;8.40;;
12986;SDS011;58897;51.960;5.582;2023-11-21T08:07:23;21.50;;;9.30;;
12986;SDS011;58897;51.960;5.582;2023-11-21T08:09:49;22.67;;;8.23;;
12986;SDS011;58897;51.960;5.582;2023-11-21T08:12:16;23.83;;;9.07;;
12986;SDS011;58897;51.960;5.582;2023-11-21T08:14:46;19.10;;;7.87;;
12986;SDS011;58897;51.960;5.582;2023-11-21T08:17:13;21.77;;;7.70;;
12986;SDS011;58897;51.960;5.582;2023-11-21T08:19:42;25.10;;;8.60;;
12986;SDS011;58897;51.960;5.582;2023-11-21T08:22:09;19.80;;;8.20;;
12986;SDS011;58897;51.960;5.582;2023-11-21T08:24:35;22.97;;;9.10;;
12986;SDS011;58897;51.960;5.582;2023-11-21T08:27:03;26.90;;;9.27;;
12986;SDS011;58897;51.960;5.582;2023-11-21T08:29:31;31.47;;;10.50;;
12986;SDS011;58897;51.960;5.582;2023-11-21T08:31:57;20.60;;;8.00;;
12986;SDS011;58897;51.960;5.582;2023-11-21T08:34:25;20.60;;;8.13;;
12986;SDS011;58897;51.960;5.582;2023-11-21T08:36:51;23.80;;;9.00;;
12986;SDS011;58897;51.960;5.582;2023-11-21T08:39:18;14.43;;;7.43;;
12986;SDS011;58897;51.960;5.582;2023-11-21T08:41:45;20.73;;;8.33;;
12986;SDS011;58897;51.960;5.582;2023-11-21T08:44:18;23.97;;;8.97;;
12986;SDS011;58897;51.960;5.582;2023-11-21T08:46:44;23.27;;;8.80;;
12986;SDS011;58897;51.960;5.582;2023-11-21T08:49:17;22.13;;;8.20;;
12986;SDS011;58897;51.960;5.582;2023-11-21T08:51:44;14.33;;;6.90;;
12986;SDS011;58897;51.960;5.582;2023-11-21T08:54:11;25.97;;;9.10;;
12986;SDS011;58897;51.960;5.582;2023-11-21T08:56:38;21.60;;;8.10;;
12986;SDS011;58897;51.960;5.582;2023-11-21T08:59:04;17.33;;;7.47;;
12986;SDS011;58897;51.960;5.582;2023-11-21T09:01:31;24.70;;;9.73;;
12986;SDS011;58897;51.960;5.582;2023-11-21T09:03:59;31.83;;;10.47;;
12986;SDS011;58897;51.960;5.582;2023-11-21T09:06:26;18.90;;;7.37;;
12986;SDS011;58897;51.960;5.582;2023-11-21T09:08:52;28.40;;;9.40;;
12986;SDS011;58897;51.960;5.582;2023-11-21T09:11:19;24.77;;;8.40;;
12986;SDS011;58897;51.960;5.582;2023-11-21T09:13:46;16.63;;;7.83;;
12986;SDS011;58897;51.960;5.582;2023-11-21T09:16:14;26.57;;;9.00;;
12986;SDS011;58897;51.960;5.582;2023-11-21T09:18:41;24.03;;;9.10;;
12986;SDS011;58897;51.960;5.582;2023-11-21T09:21:08;15.97;;;7.53;;
12986;SDS011;58897;51.960;5.582;2023-11-21T09:23:35;25.77;;;9.07;;
12986;SDS011;58897;51.960;5.582;2023-11-21T09:26:04;29.97;;;10.30;;
12986;SDS011;58897;51.960;5.582;2023-11-21T09:28:31;22.70;;;9.17;;
12986;SDS011;58897;51.960;5.582;2023-11-21T09:30:58;23.93;;;8.80;;
12986;SDS011;58897;51.960;5.582;2023-11-21T09:33:28;28.67;;;10.07;;
12986;SDS011;58897;51.960;5.582;2023-11-21T09:35:56;31.17;;;10.13;;
12986;SDS011;58897;51.960;5.582;2023-11-21T09:38:23;23.17;;;10.17;;
12986;SDS011;58897;51.960;5.582;2023-11-21T09:40:50;31.37;;;11.93;;
12986;SDS011;58897;51.960;5.582;2023-11-21T09:43:19;30.60;;;10.90;;
12986;SDS011;58897;51.960;5.582;2023-11-21T09:45:47;25.60;;;10.03;;
12986;SDS011;58897;51.960;5.582;2023-11-21T09:48:19;23.87;;;9.63;;
12986;SDS011;58897;51.960;5.582;2023-11-21T09:50:46;27.10;;;10.20;;
12986;SDS011;58897;51.960;5.582;2023-11-21T09:53:17;33.17;;;10.80;;
12986;SDS011;58897;51.960;5.582;2023-11-21T09:55:46;27.20;;;10.10;;
12986;SDS011;58897;51.960;5.582;2023-11-21T09:58:14;20.30;;;9.13;;
12986;SDS011;58897;51.960;5.582;2023-11-21T10:00:41;31.90;;;11.77;;
12986;SDS011;58897;51.960;5.582;2023-11-21T10:03:12;31.10;;;10.87;;
12986;SDS011;58897;51.960;5.582;2023-11-21T10:05:41;24.73;;;10.00;;
12986;SDS011;58897;51.960;5.582;2023-11-21T10:08:09;21.37;;;9.40;;
12986;SDS011;58897;51.960;5.582;2023-11-21T10:10:37;31.37;;;11.70;;
12986;SDS011;58897;51.960;5.582;2023-11-21T10:13:14;30.23;;;11.57;;
12986;SDS011;58897;51.960;5.582;2023-11-21T10:15:44;40.67;;;13.70;;
12986;SDS011;58897;51.960;5.582;2023-11-21T10:18:16;29.33;;;10.93;;
12986;SDS011;58897;51.960;5.582;2023-11-21T10:20:43;22.67;;;9.10;;
12986;SDS011;58897;51.960;5.582;2023-11-21T10:23:19;18.93;;;8.23;;
12986;SDS011;58897;51.960;5.582;2023-11-21T10:25:48;26.80;;;9.63;;
12986;SDS011;58897;51.960;5.582;2023-11-21T10:28:16;26.30;;;9.53;;
12986;SDS011;58897;51.960;5.582;2023-11-21T10:30:42;22.47;;;8.20;;
12986;SDS011;58897;51.960;5.582;2023-11-21T10:33:10;22.87;;;8.63;;
12986;SDS011;58897;51.960;5.582;2023-11-21T10:35:39;34.03;;;10.77;;
12986;SDS011;58897;51.960;5.582;2023-11-21T10:38:09;24.53;;;9.27;;
12986;SDS011;58897;51.960;5.582;2023-11-21T10:40:43;19.40;;;7.87;;
12986;SDS011;58897;51.960;5.582;2023-11-21T10:43:11;17.97;;;8.57;;
12986;SDS011;58897;51.960;5.582;2023-11-21T10:45:39;26.90;;;9.80;;
12986;SDS011;58897;51.960;5.582;2023-11-21T10:48:06;22.97;;;9.00;;
12986;SDS011;58897;51.960;5.582;2023-11-21T10:50:35;20.83;;;8.53;;
12986;SDS011;58897;51.960;5.582;2023-11-21T10:53:02;26.47;;;10.37;;
12986;SDS011;58897;51.960;5.582;2023-11-21T10:55:33;26.40;;;9.73;;
12986;SDS011;58897;51.960;5.582;2023-11-21T10:58:02;18.53;;;8.33;;
12986;SDS011;58897;51.960;5.582;2023-11-21T11:00:31;17.43;;;8.47;;
12986;SDS011;58897;51.960;5.582;2023-11-21T11:03:01;19.40;;;8.90;;
12986;SDS011;58897;51.960;5.582;2023-11-21T11:05:29;20.40;;;8.77;;
12986;SDS011;58897;51.960;5.582;2023-11-21T11:07:59;14.67;;;7.40;;
12986;SDS011;58897;51.960;5.582;2023-11-21T11:10:32;16.13;;;8.67;;
12986;SDS011;58897;51.960;5.582;2023-11-21T11:13:01;14.17;;;6.87;;
12986;SDS011;58897;51.960;5.582;2023-11-21T11:15:28;16.40;;;7.83;;
12986;SDS011;58897;51.960;5.582;2023-11-21T11:18:01;14.77;;;7.27;;
12986;SDS011;58897;51.960;5.582;2023-11-21T11:20:33;14.47;;;7.07;;
12986;SDS011;58897;51.960;5.582;2023-11-21T11:26:16;11.60;;;6.57;;
12986;SDS011;58897;51.960;5.582;2023-11-21T11:31:36;17.57;;;6.90;;
12986;SDS011;58897;51.960;5.582;2023-11-21T11:34:29;16.97;;;6.40;;
12986;SDS011;58897;51.960;5.582;2023-11-21T11:37:08;16.00;;;7.03;;
12986;SDS011;58897;51.960;5.582;2023-11-21T11:39:37;15.23;;;5.93;;
12986;SDS011;58897;51.960;5.582;2023-11-21T11:42:16;14.33;;;6.53;;
12986;SDS011;58897;51.960;5.582;2023-11-21T11:44:46;13.17;;;6.30;;
12986;SDS011;58897;51.960;5.582;2023-11-21T11:47:26;14.23;;;6.93;;
12986;SDS011;58897;51.960;5.582;2023-11-21T11:53:12;18.03;;;6.60;;
12986;SDS011;58897;51.960;5.582;2023-11-21T11:55:57;16.70;;;6.43;;
12986;SDS011;58897;51.960;5.582;2023-11-21T11:58:46;15.63;;;7.20;;
12986;SDS011;58897;51.960;5.582;2023-11-21T12:01:16;20.63;;;8.60;;
12986;SDS011;58897;51.960;5.582;2023-11-21T12:06:41;13.07;;;5.87;;
12986;SDS011;58897;51.960;5.582;2023-11-21T12:09:18;15.13;;;6.23;;
12986;SDS011;58897;51.960;5.582;2023-11-21T12:11:51;16.80;;;6.80;;
12986;SDS011;58897;51.960;5.582;2023-11-21T12:14:18;14.10;;;6.27;;
12986;SDS011;58897;51.960;5.582;2023-11-21T12:16:44;12.30;;;5.87;;
12986;SDS011;58897;51.960;5.582;2023-11-21T12:19:12;11.37;;;5.50;;
12986;SDS011;58897;51.960;5.582;2023-11-21T12:21:41;13.93;;;5.57;;
12986;SDS011;58897;51.960;5.582;2023-11-21T12:24:11;16.07;;;6.53;;
12986;SDS011;58897;51.960;5.582;2023-11-21T12:26:41;13.73;;;6.03;;
12986;SDS011;58897;51.960;5.582;2023-11-21T12:29:14;12.73;;;5.43;;
12986;SDS011;58897;51.960;5.582;2023-11-21T12:31:43;10.23;;;4.90;;
12986;SDS011;58897;51.960;5.582;2023-11-21T12:34:10;9.30;;;4.70;;
12986;SDS011;58897;51.960;5.582;2023-11-21T12:36:37;10.50;;;5.20;;
12986;SDS011;58897;51.960;5.582;2023-11-21T12:39:04;11.30;;;4.90;;
12986;SDS011;58897;51.960;5.582;2023-11-21T12:41:31;7.33;;;4.40;;
12986;SDS011;58897;51.960;5.582;2023-11-21T12:43:57;18.97;;;6.30;;
12986;SDS011;58897;51.960;5.582;2023-11-21T12:46:25;13.47;;;5.00;;
12986;SDS011;58897;51.960;5.582;2023-11-21T12:48:58;11.63;;;5.30;;
12986;SDS011;58897;51.960;5.582;2023-11-21T12:51:24;13.20;;;5.77;;
12986;SDS011;58897;51.960;5.582;2023-11-21T12:53:51;15.60;;;6.67;;
12986;SDS011;58897;51.960;5.582;2023-11-21T12:56:21;12.40;;;5.77;;
12986;SDS011;58897;51.960;5.582;2023-11-21T12:58:50;11.33;;;5.63;;
12986;SDS011;58897;51.960;5.582;2023-11-21T13:01:20;14.73;;;6.03;;
12986;SDS011;58897;51.960;5.582;2023-11-21T13:03:51;15.17;;;6.57;;
12986;SDS011;58897;51.960;5.582;2023-11-21T13:06:20;15.27;;;6.33;;
12986;SDS011;58897;51.960;5.582;2023-11-21T13:08:51;12.80;;;5.70;;
12986;SDS011;58897;51.960;5.582;2023-11-21T13:11:18;13.13;;;5.20;;
12986;SDS011;58897;51.960;5.582;2023-11-21T13:13:45;16.27;;;6.13;;
12986;SDS011;58897;51.960;5.582;2023-11-21T13:16:18;14.57;;;6.03;;
12986;SDS011;58897;51.960;5.582;2023-11-21T13:18:46;11.23;;;6.30;;
12986;SDS011;58897;51.960;5.582;2023-11-21T13:21:13;17.43;;;7.50;;
12986;SDS011;58897;51.960;5.582;2023-11-21T13:23:41;18.67;;;7.93;;
12986;SDS011;58897;51.960;5.582;2023-11-21T13:26:11;17.00;;;7.17;;
12986;SDS011;58897;51.960;5.582;2023-11-21T13:28:38;14.47;;;6.77;;
12986;SDS011;58897;51.960;5.582;2023-11-21T13:31:07;18.57;;;7.57;;
12986;SDS011;58897;51.960;5.582;2023-11-21T13:33:51;17.10;;;7.13;;
12986;SDS011;58897;51.960;5.582;2023-11-21T13:36:29;17.03;;;7.77;;
12986;SDS011;58897;51.960;5.582;2023-11-21T13:38:59;14.47;;;6.60;;
12986;SDS011;58897;51.960;5.582;2023-11-21T13:41:25;12.43;;;6.07;;
12986;SDS011;58897;51.960;5.582;2023-11-21T13:43:57;19.30;;;7.73;;
12986;SDS011;58897;51.960;5.582;2023-11-21T13:46:33;15.67;;;7.47;;
12986;SDS011;58897;51.960;5.582;2023-11-21T13:49:04;16.33;;;7.27;;
12986;SDS011;58897;51.960;5.582;2023-11-21T13:51:36;13.70;;;6.63;;
12986;SDS011;58897;51.960;5.582;2023-11-21T13:54:12;14.30;;;7.13;;
12986;SDS011;58897;51.960;5.582;2023-11-21T13:56:41;15.63;;;6.70;;
12986;SDS011;58897;51.960;5.582;2023-11-21T13:59:10;18.53;;;7.20;;
12986;SDS011;58897;51.960;5.582;2023-11-21T14:01:48;18.00;;;6.87;;
12986;SDS011;58897;51.960;5.582;2023-11-21T14:04:26;13.93;;;7.00;;
12986;SDS011;58897;51.960;5.582;2023-11-21T14:06:59;14.63;;;6.87;;
12986;SDS011;58897;51.960;5.582;2023-11-21T14:09:36;13.17;;;6.40;;
12986;SDS011;58897;51.960;5.582;2023-11-21T14:12:10;16.53;;;7.10;;
12986;SDS011;58897;51.960;5.582;2023-11-21T14:14:39;19.20;;;7.10;;
12986;SDS011;58897;51.960;5.582;2023-11-21T14:17:06;13.13;;;5.97;;
12986;SDS011;58897;51.960;5.582;2023-11-21T14:19:33;12.27;;;5.63;;
12986;SDS011;58897;51.960;5.582;2023-11-21T14:22:03;13.47;;;6.10;;
12986;SDS011;58897;51.960;5.582;2023-11-21T14:24:30;9.27;;;5.80;;
12986;SDS011;58897;51.960;5.582;2023-11-21T14:26:59;14.13;;;6.07;;
12986;SDS011;58897;51.960;5.582;2023-11-21T14:29:26;10.87;;;5.67;;
12986;SDS011;58897;51.960;5.582;2023-11-21T14:31:54;12.57;;;5.47;;
12986;SDS011;58897;51.960;5.582;2023-11-21T14:34:23;13.67;;;5.03;;
12986;SDS011;58897;51.960;5.582;2023-11-21T14:36:50;10.93;;;4.40;;
12986;SDS011;58897;51.960;5.582;2023-11-21T14:39:17;11.40;;;4.63;;
12986;SDS011;58897;51.960;5.582;2023-11-21T14:41:50;11.47;;;4.80;;
12986;SDS011;58897;51.960;5.582;2023-11-21T14:44:22;9.93;;;3.97;;
12986;SDS011;58897;51.960;5.582;2023-11-21T14:46:52;10.63;;;4.50;;
12986;SDS011;58897;51.960;5.582;2023-11-21T14:49:24;15.83;;;5.67;;
12986;SDS011;58897;51.960;5.582;2023-11-21T14:51:53;14.97;;;5.07;;